sensor_id;sensor_type;location;lat;lon;timestamp;pressure;altitude;pressure_sealevel;temperature;humidity
42621;BME280;28252;53.336;-6.298;2022-11-20T00:00:11;99931.25;;;25.67;41.16
42621;BME280;28252;53.336;-6.298;2022-11-20T00:00:42;99932.13;;;25.68;41.02
42621;BME280;28252;53.336;-6.298;2022-11-20T00:01:14;99939.22;;;25.69;40.89
42621;BME280;28252;53.336;-6.298;2022-11-20T00:01:46;99930.00;;;25.70;40.77
42621;BME280;28252;53.336;-6.298;2022-11-20T00:02:16;99938.16;;;25.70;40.76
42621;BME280;28252;53.336;-6.298;2022-11-20T00:02:47;99932.13;;;25.68;40.72
42621;BME280;28252;53.336;-6.298;2022-11-20T00:03:18;99930.00;;;25.70;40.87
42621;BME280;28252;53.336;-6.298;2022-11-20T00:03:53;99930.00;;;25.70;41.02
42621;BME280;28252;53.336;-6.298;2022-11-20T00:04:24;99933.75;;;25.69;40.70
42621;BME280;28252;53.336;-6.298;2022-11-20T00:04:55;99929.16;;;25.69;40.91
42621;BME280;28252;53.336;-6.298;2022-11-20T00:05:26;99930.00;;;25.70;40.82
42621;BME280;28252;53.336;-6.298;2022-11-20T00:06:00;99935.44;;;25.70;40.81
42621;BME280;28252;53.336;-6.298;2022-11-20T00:06:31;99937.56;;;25.68;40.94
42621;BME280;28252;53.336;-6.298;2022-11-20T00:07:02;99933.75;;;25.69;40.57
42621;BME280;28252;53.336;-6.298;2022-11-20T00:07:33;99937.56;;;25.68;40.69
42621;BME280;28252;53.336;-6.298;2022-11-20T00:08:04;99932.56;;;25.65;40.41
42621;BME280;28252;53.336;-6.298;2022-11-20T00:08:35;99938.84;;;25.65;40.55
42621;BME280;28252;53.336;-6.298;2022-11-20T00:09:09;99936.94;;;25.66;40.65
42621;BME280;28252;53.336;-6.298;2022-11-20T00:09:40;99941.78;;;25.64;40.57
42621;BME280;28252;53.336;-6.298;2022-11-20T00:10:11;99942.66;;;25.64;40.87
42621;BME280;28252;53.336;-6.298;2022-11-20T00:10:42;99935.50;;;25.63;41.00
42621;BME280;28252;53.336;-6.298;2022-11-20T00:11:14;99941.78;;;25.64;40.85
42621;BME280;28252;53.336;-6.298;2022-11-20T00:11:45;99945.97;;;25.66;40.72
42621;BME280;28252;53.336;-6.298;2022-11-20T00:12:16;99938.84;;;25.65;40.98
42621;BME280;28252;53.336;-6.298;2022-11-20T00:12:47;99940.75;;;25.65;40.73
42621;BME280;28252;53.336;-6.298;2022-11-20T00:13:18;99948.91;;;25.65;40.50
42621;BME280;28252;53.336;-6.298;2022-11-20T00:13:50;99940.75;;;25.65;40.71
42621;BME280;28252;53.336;-6.298;2022-11-20T00:14:21;99945.13;;;25.66;40.87
42621;BME280;28252;53.336;-6.298;2022-11-20T00:14:52;99939.66;;;25.66;40.69
42621;BME280;28252;53.336;-6.298;2022-11-20T00:15:23;99942.66;;;25.64;40.99
42621;BME280;28252;53.336;-6.298;2022-11-20T00:15:58;99942.88;;;25.63;40.44
42621;BME280;28252;53.336;-6.298;2022-11-20T00:16:30;99936.56;;;25.62;40.82
42621;BME280;28252;53.336;-6.298;2022-11-20T00:17:01;99944.75;;;25.62;40.62
42621;BME280;28252;53.336;-6.298;2022-11-20T00:17:32;99943.09;;;25.61;40.57
42621;BME280;28252;53.336;-6.298;2022-11-20T00:18:03;99943.53;;;25.58;40.88
42621;BME280;28252;53.336;-6.298;2022-11-20T00:18:34;99947.69;;;25.61;40.96
42621;BME280;28252;53.336;-6.298;2022-11-20T00:19:05;99935.94;;;25.60;40.58
42621;BME280;28252;53.336;-6.298;2022-11-20T00:19:36;99939.50;;;25.61;40.96
42621;BME280;28252;53.336;-6.298;2022-11-20T00:20:07;99939.50;;;25.61;40.79
42621;BME280;28252;53.336;-6.298;2022-11-20T00:20:38;99950.66;;;25.59;40.44
42621;BME280;28252;53.336;-6.298;2022-11-20T00:21:10;99940.81;;;25.58;40.61
42621;BME280;28252;53.336;-6.298;2022-11-20T00:21:42;99944.34;;;25.59;40.45
42621;BME280;28252;53.336;-6.298;2022-11-20T00:22:12;99946.03;;;25.60;40.49
42621;BME280;28252;53.336;-6.298;2022-11-20T00:22:44;99941.41;;;25.60;40.65
42621;BME280;28252;53.336;-6.298;2022-11-20T00:23:15;99946.47;;;25.57;40.70
42621;BME280;28252;53.336;-6.298;2022-11-20T00:23:46;99950.88;;;25.58;40.65
42621;BME280;28252;53.336;-6.298;2022-11-20T00:24:17;99946.91;;;25.53;40.71
42621;BME280;28252;53.336;-6.298;2022-11-20T00:24:48;99942.53;;;25.52;40.71
42621;BME280;28252;53.336;-6.298;2022-11-20T00:25:19;99941.91;;;25.50;40.42
42621;BME280;28252;53.336;-6.298;2022-11-20T00:25:50;99946.16;;;25.46;40.56
42621;BME280;28252;53.336;-6.298;2022-11-20T00:26:21;99950.34;;;25.49;40.78
42621;BME280;28252;53.336;-6.298;2022-11-20T00:26:52;99952.81;;;25.50;40.71
42621;BME280;28252;53.336;-6.298;2022-11-20T00:27:23;99951.16;;;25.49;40.82
42621;BME280;28252;53.336;-6.298;2022-11-20T00:27:54;99962.69;;;25.51;40.88
42621;BME280;28252;53.336;-6.298;2022-11-20T00:28:25;99954.34;;;25.46;40.68
42621;BME280;28252;53.336;-6.298;2022-11-20T00:28:57;99960.41;;;25.48;40.43
42621;BME280;28252;53.336;-6.298;2022-11-20T00:29:28;99953.91;;;25.49;40.91
42621;BME280;28252;53.336;-6.298;2022-11-20T00:29:59;99957.66;;;25.48;40.37
42621;BME280;28252;53.336;-6.298;2022-11-20T00:30:30;99949.25;;;25.50;40.81
42621;BME280;28252;53.336;-6.298;2022-11-20T00:31:08;99955.53;;;25.50;40.47
42621;BME280;28252;53.336;-6.298;2022-11-20T00:31:40;99949.88;;;25.52;40.61
42621;BME280;28252;53.336;-6.298;2022-11-20T00:32:11;99958.53;;;25.49;40.39
42621;BME280;28252;53.336;-6.298;2022-11-20T00:32:41;99955.78;;;25.49;40.49
42621;BME280;28252;53.336;-6.298;2022-11-20T00:33:12;99954.56;;;25.45;40.21
42621;BME280;28252;53.336;-6.298;2022-11-20T00:33:43;99957.50;;;25.43;40.82
42621;BME280;28252;53.336;-6.298;2022-11-20T00:34:14;99955.84;;;25.42;40.67
42621;BME280;28252;53.336;-6.298;2022-11-20T00:34:45;99959.63;;;25.41;40.50
42621;BME280;28252;53.336;-6.298;2022-11-20T00:35:16;99962.94;;;25.43;40.58
42621;BME280;28252;53.336;-6.298;2022-11-20T00:35:47;99957.50;;;25.43;40.68
42621;BME280;28252;53.336;-6.298;2022-11-20T00:36:20;99960.44;;;25.42;40.51
42621;BME280;28252;53.336;-6.298;2022-11-20T00:36:51;99959.41;;;25.43;40.62
42621;BME280;28252;53.336;-6.298;2022-11-20T00:37:22;99955.63;;;25.44;40.65
42621;BME280;28252;53.336;-6.298;2022-11-20T00:37:52;99950.41;;;25.42;40.46
42621;BME280;28252;53.336;-6.298;2022-11-20T00:38:24;99955.84;;;25.42;40.39
42621;BME280;28252;53.336;-6.298;2022-11-20T00:38:57;99951.44;;;25.41;40.57
42621;BME280;28252;53.336;-6.298;2022-11-20T00:39:29;99949.75;;;25.40;40.67
42621;BME280;28252;53.336;-6.298;2022-11-20T00:39:59;99959.41;;;25.43;40.54
42621;BME280;28252;53.336;-6.298;2022-11-20T00:40:30;99953.34;;;25.41;40.79
42621;BME280;28252;53.336;-6.298;2022-11-20T00:41:03;99952.72;;;25.39;40.47
42621;BME280;28252;53.336;-6.298;2022-11-20T00:41:34;99949.97;;;25.39;40.47
42621;BME280;28252;53.336;-6.298;2022-11-20T00:42:05;99950.84;;;25.39;40.70
42621;BME280;28252;53.336;-6.298;2022-11-20T00:42:36;99958.41;;;25.37;40.36
42621;BME280;28252;53.336;-6.298;2022-11-20T00:43:07;99953.78;;;25.38;40.74
42621;BME280;28252;53.336;-6.298;2022-11-20T00:43:38;99950.84;;;25.39;40.81
42621;BME280;28252;53.336;-6.298;2022-11-20T00:44:08;99951.28;;;25.36;40.36
42621;BME280;28252;53.336;-6.298;2022-11-20T00:44:39;99955.06;;;25.35;40.78
42621;BME280;28252;53.336;-6.298;2022-11-20T00:45:10;99953.84;;;25.31;40.67
42621;BME280;28252;53.336;-6.298;2022-11-20T00:45:41;99954.88;;;25.30;40.56
42621;BME280;28252;53.336;-6.298;2022-11-20T00:46:13;99948.81;;;25.28;40.63
42621;BME280;28252;53.336;-6.298;2022-11-20T00:46:44;99952.16;;;25.30;40.56
42621;BME280;28252;53.336;-6.298;2022-11-20T00:47:15;99953.84;;;25.31;40.59
42621;BME280;28252;53.336;-6.298;2022-11-20T00:47:46;99952.16;;;25.30;40.64
42621;BME280;28252;53.336;-6.298;2022-11-20T00:48:17;99955.97;;;25.29;40.48
42621;BME280;28252;53.336;-6.298;2022-11-20T00:48:48;99944.44;;;25.27;40.42
42621;BME280;28252;53.336;-6.298;2022-11-20T00:49:19;99954.50;;;25.26;40.56
42621;BME280;28252;53.336;-6.298;2022-11-20T00:49:49;99948.41;;;25.24;40.89
42621;BME280;28252;53.336;-6.298;2022-11-20T00:50:20;99950.72;;;25.27;40.79
42621;BME280;28252;53.336;-6.298;2022-11-20T00:50:51;99946.31;;;25.26;40.50
42621;BME280;28252;53.336;-6.298;2022-11-20T00:51:23;99947.59;;;25.24;40.49
42621;BME280;28252;53.336;-6.298;2022-11-20T00:51:55;99946.34;;;25.20;40.57
42621;BME280;28252;53.336;-6.298;2022-11-20T00:52:26;99950.97;;;25.19;40.38
42621;BME280;28252;53.336;-6.298;2022-11-20T00:52:57;99946.81;;;25.16;40.66
42621;BME280;28252;53.336;-6.298;2022-11-20T00:53:28;99953.91;;;25.17;40.82
42621;BME280;28252;53.336;-6.298;2022-11-20T00:53:59;99951.19;;;25.17;40.61
42621;BME280;28252;53.336;-6.298;2022-11-20T00:54:30;99946.56;;;25.18;40.85
42621;BME280;28252;53.336;-6.298;2022-11-20T00:55:01;99951.19;;;25.17;40.75
42621;BME280;28252;53.336;-6.298;2022-11-20T00:55:32;99948.91;;;25.14;40.49
42621;BME280;28252;53.336;-6.298;2022-11-20T00:56:04;99942.84;;;25.12;40.93
42621;BME280;28252;53.336;-6.298;2022-11-20T00:56:35;99951.84;;;25.13;40.55
42621;BME280;28252;53.336;-6.298;2022-11-20T00:57:06;99938.22;;;25.13;40.95
42621;BME280;28252;53.336;-6.298;2022-11-20T00:57:37;99941.16;;;25.11;40.81
42621;BME280;28252;53.336;-6.298;2022-11-20T00:58:08;99936.78;;;25.10;40.66
42621;BME280;28252;53.336;-6.298;2022-11-20T00:58:40;99934.50;;;25.07;40.54
42621;BME280;28252;53.336;-6.298;2022-11-20T00:59:11;99936.84;;;25.04;40.79
42621;BME280;28252;53.336;-6.298;2022-11-20T00:59:42;99943.09;;;25.04;40.84
42621;BME280;28252;53.336;-6.298;2022-11-20T01:00:13;99951.06;;;25.06;40.75
42621;BME280;28252;53.336;-6.298;2022-11-20T01:00:44;99940.16;;;25.06;40.93
42621;BME280;28252;53.336;-6.298;2022-11-20T01:01:16;99943.09;;;25.04;40.94
42621;BME280;28252;53.336;-6.298;2022-11-20T01:01:47;99942.06;;;25.05;41.01
42621;BME280;28252;53.336;-6.298;2022-11-20T01:02:18;99936.63;;;25.05;40.96
42621;BME280;28252;53.336;-6.298;2022-11-20T01:02:49;99948.56;;;25.04;40.67
42621;BME280;28252;53.336;-6.298;2022-11-20T01:03:20;99946.91;;;25.03;40.74
42621;BME280;28252;53.336;-6.298;2022-11-20T01:03:51;99949.00;;;25.01;40.65
42621;BME280;28252;53.336;-6.298;2022-11-20T01:04:22;99942.09;;;24.98;40.73
42621;BME280;28252;53.336;-6.298;2022-11-20T01:04:53;99947.78;;;24.97;41.05
42621;BME280;28252;53.336;-6.298;2022-11-20T01:05:24;99948.00;;;24.95;40.90
42621;BME280;28252;53.336;-6.298;2022-11-20T01:05:58;99946.09;;;24.96;40.73
42621;BME280;28252;53.336;-6.298;2022-11-20T01:06:31;99944.44;;;24.95;41.07
42621;BME280;28252;53.336;-6.298;2022-11-20T01:07:02;99942.53;;;24.95;40.99
42621;BME280;28252;53.336;-6.298;2022-11-20T01:07:33;99943.63;;;24.94;40.89
42621;BME280;28252;53.336;-6.298;2022-11-20T01:08:04;99938.59;;;24.91;40.76
42621;BME280;28252;53.336;-6.298;2022-11-20T01:08:35;99943.19;;;24.91;41.07
42621;BME280;28252;53.336;-6.298;2022-11-20T01:09:08;99938.59;;;24.91;40.94
42621;BME280;28252;53.336;-6.298;2022-11-20T01:09:39;99936.09;;;24.90;40.91
42621;BME280;28252;53.336;-6.298;2022-11-20T01:10:10;99946.16;;;24.89;41.11
42621;BME280;28252;53.336;-6.298;2022-11-20T01:10:41;99938.22;;;24.88;41.00
42621;BME280;28252;53.336;-6.298;2022-11-20T01:11:31;99935.50;;;24.88;40.79
42621;BME280;28252;53.336;-6.298;2022-11-20T01:12:03;99950.38;;;24.85;41.11
42621;BME280;28252;53.336;-6.298;2022-11-20T01:12:33;99939.47;;;24.85;40.92
42621;BME280;28252;53.336;-6.298;2022-11-20T01:13:04;99945.75;;;24.86;40.94
42621;BME280;28252;53.336;-6.298;2022-11-20T01:13:54;99940.28;;;24.86;40.83
42621;BME280;28252;53.336;-6.298;2022-11-20T01:14:26;99939.25;;;24.87;41.05
42621;BME280;28252;53.336;-6.298;2022-11-20T01:14:57;99943.69;;;24.81;41.18
42621;BME280;28252;53.336;-6.298;2022-11-20T01:15:27;99943.69;;;24.81;41.03
42621;BME280;28252;53.336;-6.298;2022-11-20T01:16:02;99940.13;;;24.80;41.14
42621;BME280;28252;53.336;-6.298;2022-11-20T01:16:34;99949.38;;;24.79;41.17
42621;BME280;28252;53.336;-6.298;2022-11-20T01:17:06;99946.63;;;24.79;40.97
42621;BME280;28252;53.336;-6.298;2022-11-20T01:17:36;99953.13;;;24.78;40.98
42621;BME280;28252;53.336;-6.298;2022-11-20T01:18:07;99950.41;;;24.78;41.15
42621;BME280;28252;53.336;-6.298;2022-11-20T01:18:39;99946.63;;;24.79;41.11
42621;BME280;28252;53.336;-6.298;2022-11-20T01:19:11;99950.41;;;24.78;41.24
42621;BME280;28252;53.336;-6.298;2022-11-20T01:19:44;99955.84;;;24.78;41.22
42621;BME280;28252;53.336;-6.298;2022-11-20T01:20:15;99944.34;;;24.76;41.24
42621;BME280;28252;53.336;-6.298;2022-11-20T01:20:46;99951.69;;;24.76;41.17
42621;BME280;28252;53.336;-6.298;2022-11-20T01:21:18;99953.78;;;24.74;41.25
42621;BME280;28252;53.336;-6.298;2022-11-20T01:21:50;99951.91;;;24.74;40.94
42621;BME280;28252;53.336;-6.298;2022-11-20T01:22:21;99948.13;;;24.75;40.98
42621;BME280;28252;53.336;-6.298;2022-11-20T01:22:52;99954.63;;;24.74;41.25
42621;BME280;28252;53.336;-6.298;2022-11-20T01:23:23;99945.00;;;24.72;41.14
42621;BME280;28252;53.336;-6.298;2022-11-20T01:23:54;99950.44;;;24.72;41.03
42621;BME280;28252;53.336;-6.298;2022-11-20T01:24:25;99944.16;;;24.71;41.21
42621;BME280;28252;53.336;-6.298;2022-11-20T01:24:56;99947.94;;;24.70;41.10
42621;BME280;28252;53.336;-6.298;2022-11-20T01:25:27;99944.59;;;24.68;41.35
42621;BME280;28252;53.336;-6.298;2022-11-20T01:25:59;99944.81;;;24.67;40.98
42621;BME280;28252;53.336;-6.298;2022-11-20T01:26:31;99947.97;;;24.64;41.37
42621;BME280;28252;53.336;-6.298;2022-11-20T01:27:03;99952.59;;;24.63;41.26
42621;BME280;28252;53.336;-6.298;2022-11-20T01:27:34;99947.75;;;24.65;41.07
42621;BME280;28252;53.336;-6.298;2022-11-20T01:28:04;99952.16;;;24.66;41.07
42621;BME280;28252;53.336;-6.298;2022-11-20T01:28:37;99943.38;;;24.64;41.01
42621;BME280;28252;53.336;-6.298;2022-11-20T01:29:15;99946.31;;;24.63;40.99
42621;BME280;28252;53.336;-6.298;2022-11-20T01:29:47;99943.19;;;24.59;41.25
42621;BME280;28252;53.336;-6.298;2022-11-20T01:30:17;99945.94;;;24.59;41.35
42621;BME280;28252;53.336;-6.298;2022-11-20T01:30:48;99948.88;;;24.57;41.25
42621;BME280;28252;53.336;-6.298;2022-11-20T01:31:20;99944.25;;;24.58;41.41
42621;BME280;28252;53.336;-6.298;2022-11-20T01:31:52;99945.06;;;24.58;41.29
42621;BME280;28252;53.336;-6.298;2022-11-20T01:32:23;99944.66;;;24.55;41.15
42621;BME280;28252;53.336;-6.298;2022-11-20T01:32:54;99948.25;;;24.55;41.22
42621;BME280;28252;53.336;-6.298;2022-11-20T01:33:26;99949.69;;;24.58;41.11
42621;BME280;28252;53.336;-6.298;2022-11-20T01:33:57;99943.00;;;24.54;41.21
42621;BME280;28252;53.336;-6.298;2022-11-20T01:34:29;99945.53;;;24.55;41.25
42621;BME280;28252;53.336;-6.298;2022-11-20T01:35:00;99940.09;;;24.55;41.44
42621;BME280;28252;53.336;-6.298;2022-11-20T01:35:31;99949.28;;;24.54;41.37
42621;BME280;28252;53.336;-6.298;2022-11-20T01:36:05;99945.53;;;24.55;41.12
42621;BME280;28252;53.336;-6.298;2022-11-20T01:36:37;99949.28;;;24.54;40.90
42621;BME280;28252;53.336;-6.298;2022-11-20T01:37:08;99949.69;;;24.51;41.45
42621;BME280;28252;53.336;-6.298;2022-11-20T01:37:39;99945.53;;;24.49;41.41
42621;BME280;28252;53.336;-6.298;2022-11-20T01:38:09;99953.06;;;24.47;41.28
42621;BME280;28252;53.336;-6.298;2022-11-20T01:38:41;99951.41;;;24.46;41.63
42621;BME280;28252;53.336;-6.298;2022-11-20T01:39:13;99954.13;;;24.46;41.22
42621;BME280;28252;53.336;-6.298;2022-11-20T01:39:44;99945.13;;;24.45;41.49
42621;BME280;28252;53.336;-6.298;2022-11-20T01:40:15;99948.06;;;24.43;41.47
42621;BME280;28252;53.336;-6.298;2022-11-20T01:40:53;99944.28;;;24.45;41.12
42621;BME280;28252;53.336;-6.298;2022-11-20T01:41:24;99945.97;;;24.46;41.28
42621;BME280;28252;53.336;-6.298;2022-11-20T01:42:14;99946.38;;;24.42;41.43
42621;BME280;28252;53.336;-6.298;2022-11-20T01:43:19;99951.81;;;24.42;41.09
42621;BME280;28252;53.336;-6.298;2022-11-20T01:43:53;99953.72;;;24.42;41.50
42621;BME280;28252;53.336;-6.298;2022-11-20T01:44:43;99948.50;;;24.40;41.05
42621;BME280;28252;53.336;-6.298;2022-11-20T01:46:08;99956.03;;;24.38;41.16
42621;BME280;28252;53.336;-6.298;2022-11-20T01:46:55;99957.69;;;24.39;41.20
42621;BME280;28252;53.336;-6.298;2022-11-20T01:47:32;99960.63;;;24.38;41.27
42621;BME280;28252;53.336;-6.298;2022-11-20T01:48:05;99956.25;;;24.37;41.41
42621;BME280;28252;53.336;-6.298;2022-11-20T01:48:37;99961.91;;;24.35;41.19
42621;BME280;28252;53.336;-6.298;2022-11-20T01:49:41;99957.50;;;24.34;41.31
42621;BME280;28252;53.336;-6.298;2022-11-20T01:50:14;99953.13;;;24.33;41.59
42621;BME280;28252;53.336;-6.298;2022-11-20T01:50:47;99962.34;;;24.32;41.34
42621;BME280;28252;53.336;-6.298;2022-11-20T01:51:24;99958.59;;;24.33;41.32
42621;BME280;28252;53.336;-6.298;2022-11-20T01:51:56;99964.03;;;24.33;41.12
42621;BME280;28252;53.336;-6.298;2022-11-20T01:52:40;99957.13;;;24.31;41.24
42621;BME280;28252;53.336;-6.298;2022-11-20T01:53:14;99960.03;;;24.29;41.54
42621;BME280;28252;53.336;-6.298;2022-11-20T01:53:47;99962.38;;;24.26;41.37
42621;BME280;28252;53.336;-6.298;2022-11-20T01:54:19;99962.38;;;24.26;41.43
42621;BME280;28252;53.336;-6.298;2022-11-20T01:54:59;99959.84;;;24.24;41.48
42621;BME280;28252;53.336;-6.298;2022-11-20T01:55:36;99966.97;;;24.25;41.46
42621;BME280;28252;53.336;-6.298;2022-11-20T01:56:08;99972.41;;;24.25;41.71
42621;BME280;28252;53.336;-6.298;2022-11-20T01:56:40;99971.81;;;24.23;41.35
42621;BME280;28252;53.336;-6.298;2022-11-20T01:57:13;99974.53;;;24.23;41.35
42621;BME280;28252;53.336;-6.298;2022-11-20T01:57:46;99978.28;;;24.22;41.58
42621;BME280;28252;53.336;-6.298;2022-11-20T01:58:20;99973.66;;;24.22;41.58
42621;BME280;28252;53.336;-6.298;2022-11-20T01:58:54;99976.81;;;24.19;41.30
42621;BME280;28252;53.336;-6.298;2022-11-20T01:59:27;99978.72;;;24.19;41.58
42621;BME280;28252;53.336;-6.298;2022-11-20T02:00:04;99979.78;;;24.18;41.31
42621;BME280;28252;53.336;-6.298;2022-11-20T02:00:36;99987.94;;;24.18;41.59
42621;BME280;28252;53.336;-6.298;2022-11-20T02:01:07;99991.69;;;24.17;41.68
42621;BME280;28252;53.336;-6.298;2022-11-20T02:01:38;99993.41;;;24.11;41.42
42621;BME280;28252;53.336;-6.298;2022-11-20T02:02:09;99987.97;;;24.11;41.66
42621;BME280;28252;53.336;-6.298;2022-11-20T02:02:41;99985.44;;;24.10;41.54
42621;BME280;28252;53.336;-6.298;2022-11-20T02:03:15;99990.03;;;24.09;41.86
42621;BME280;28252;53.336;-6.298;2022-11-20T02:03:47;99992.53;;;24.11;41.49
42621;BME280;28252;53.336;-6.298;2022-11-20T02:04:18;99999.06;;;24.10;41.57
42621;BME280;28252;53.336;-6.298;2022-11-20T02:04:50;99996.94;;;24.12;41.69
42621;BME280;28252;53.336;-6.298;2022-11-20T02:05:58;99989.22;;;24.09;41.51
42621;BME280;28252;53.336;-6.298;2022-11-20T02:06:34;99991.94;;;24.09;41.44
42621;BME280;28252;53.336;-6.298;2022-11-20T02:07:06;99987.31;;;24.09;41.71
42621;BME280;28252;53.336;-6.298;2022-11-20T02:07:37;99997.97;;;24.11;41.33
42621;BME280;28252;53.336;-6.298;2022-11-20T02:08:09;99986.28;;;24.10;41.63
42621;BME280;28252;53.336;-6.298;2022-11-20T02:08:40;99989.22;;;24.09;41.35
42621;BME280;28252;53.336;-6.298;2022-11-20T02:09:11;99994.66;;;24.09;41.48
42621;BME280;28252;53.336;-6.298;2022-11-20T02:09:42;99986.06;;;24.05;41.68
42621;BME280;28252;53.336;-6.298;2022-11-20T02:10:13;99987.97;;;24.04;41.47
42621;BME280;28252;53.336;-6.298;2022-11-20T02:10:45;99980.84;;;24.03;41.72
42621;BME280;28252;53.336;-6.298;2022-11-20T02:11:16;99987.13;;;24.04;41.68
42621;BME280;28252;53.336;-6.298;2022-11-20T02:11:46;99986.28;;;24.03;41.76
42621;BME280;28252;53.336;-6.298;2022-11-20T02:12:17;99971.03;;;24.02;41.54
42621;BME280;28252;53.336;-6.298;2022-11-20T02:13:07;99976.28;;;23.97;41.58
42621;BME280;28252;53.336;-6.298;2022-11-20T02:14:11;99966.22;;;23.98;41.70
42621;BME280;28252;53.336;-6.298;2022-11-20T02:14:42;99959.09;;;23.97;41.71
42621;BME280;28252;53.336;-6.298;2022-11-20T02:15:13;99948.22;;;23.97;41.70
42621;BME280;28252;53.336;-6.298;2022-11-20T02:15:44;99946.56;;;23.96;41.52
42621;BME280;28252;53.336;-6.298;2022-11-20T02:16:25;99940.28;;;23.95;41.79
42621;BME280;28252;53.336;-6.298;2022-11-20T02:16:58;99940.69;;;23.92;41.85
42621;BME280;28252;53.336;-6.298;2022-11-20T02:17:29;99935.25;;;23.92;41.47
42621;BME280;28252;53.336;-6.298;2022-11-20T02:18:00;99932.78;;;23.91;41.64
42621;BME280;28252;53.336;-6.298;2022-11-20T02:18:31;99939.88;;;23.92;41.51
42621;BME280;28252;53.336;-6.298;2022-11-20T02:19:02;99939.03;;;23.91;41.86
42621;BME280;28252;53.336;-6.298;2022-11-20T02:19:34;99940.94;;;23.91;41.54
42621;BME280;28252;53.336;-6.298;2022-11-20T02:20:05;99933.81;;;23.90;41.93
42621;BME280;28252;53.336;-6.298;2022-11-20T02:20:37;99926.91;;;23.87;41.54
42621;BME280;28252;53.336;-6.298;2022-11-20T02:21:12;99933.19;;;23.88;41.65
42621;BME280;28252;53.336;-6.298;2022-11-20T02:22:05;99939.06;;;23.84;41.71
42621;BME280;28252;53.336;-6.298;2022-11-20T02:22:39;99936.13;;;23.86;41.85
42621;BME280;28252;53.336;-6.298;2022-11-20T02:23:12;99938.22;;;23.84;41.90
42621;BME280;28252;53.336;-6.298;2022-11-20T02:24:23;99944.50;;;23.84;41.72
42621;BME280;28252;53.336;-6.298;2022-11-20T02:24:54;99943.66;;;23.84;41.73
42621;BME280;28252;53.336;-6.298;2022-11-20T02:25:25;99939.88;;;23.85;41.71
42621;BME280;28252;53.336;-6.298;2022-11-20T02:25:57;99946.38;;;23.84;41.68
42621;BME280;28252;53.336;-6.298;2022-11-20T02:26:30;99940.31;;;23.82;41.70
42621;BME280;28252;53.336;-6.298;2022-11-20T02:27:02;99943.03;;;23.82;41.90
42621;BME280;28252;53.336;-6.298;2022-11-20T02:27:34;99931.31;;;23.81;41.67
42621;BME280;28252;53.336;-6.298;2022-11-20T02:28:05;99936.94;;;23.80;41.75
42621;BME280;28252;53.336;-6.298;2022-11-20T02:28:36;99933.41;;;23.79;41.86
42621;BME280;28252;53.336;-6.298;2022-11-20T02:29:07;99940.06;;;23.77;41.75
42621;BME280;28252;53.336;-6.298;2022-11-20T02:29:39;99940.31;;;23.75;41.48
42621;BME280;28252;53.336;-6.298;2022-11-20T02:30:11;99939.47;;;23.75;41.77
42621;BME280;28252;53.336;-6.298;2022-11-20T02:30:42;99936.13;;;23.73;41.98
42621;BME280;28252;53.336;-6.298;2022-11-20T02:31:13;99930.69;;;23.73;42.07
42621;BME280;28252;53.336;-6.298;2022-11-20T02:31:44;99934.44;;;23.72;41.81
42621;BME280;28252;53.336;-6.298;2022-11-20T02:32:22;99934.44;;;23.72;42.07
42621;BME280;28252;53.336;-6.298;2022-11-20T02:32:54;99936.94;;;23.73;41.98
42621;BME280;28252;53.336;-6.298;2022-11-20T02:33:25;99941.56;;;23.73;41.86
42621;BME280;28252;53.336;-6.298;2022-11-20T02:33:58;99941.78;;;23.71;41.68
42621;BME280;28252;53.336;-6.298;2022-11-20T02:34:29;99938.44;;;23.69;41.96
42621;BME280;28252;53.336;-6.298;2022-11-20T02:35:49;99943.88;;;23.69;42.05
42621;BME280;28252;53.336;-6.298;2022-11-20T02:36:20;99938.66;;;23.67;41.79
42621;BME280;28252;53.336;-6.298;2022-11-20T02:36:51;99942.41;;;23.66;41.96
42621;BME280;28252;53.336;-6.298;2022-11-20T02:37:23;99937.81;;;23.67;42.04
42621;BME280;28252;53.336;-6.298;2022-11-20T02:37:58;99944.50;;;23.64;41.86
42621;BME280;28252;53.336;-6.298;2022-11-20T02:38:29;99943.66;;;23.64;41.97
42621;BME280;28252;53.336;-6.298;2022-11-20T02:39:01;99944.50;;;23.64;41.96
42621;BME280;28252;53.336;-6.298;2022-11-20T02:39:32;99939.88;;;23.65;41.99
42621;BME280;28252;53.336;-6.298;2022-11-20T02:40:03;99951.63;;;23.65;41.93
42621;BME280;28252;53.336;-6.298;2022-11-20T02:40:34;99944.50;;;23.64;41.77
42621;BME280;28252;53.336;-6.298;2022-11-20T02:41:05;99948.28;;;23.63;41.85
42621;BME280;28252;53.336;-6.298;2022-11-20T02:41:36;99944.91;;;23.61;41.77
42621;BME280;28252;53.336;-6.298;2022-11-20T02:42:07;99952.03;;;23.62;41.81
42621;BME280;28252;53.336;-6.298;2022-11-20T02:42:38;99944.91;;;23.61;41.73
42621;BME280;28252;53.336;-6.298;2022-11-20T02:43:09;99955.78;;;23.61;41.92
42621;BME280;28252;53.336;-6.298;2022-11-20T02:43:40;99948.09;;;23.58;41.79
42621;BME280;28252;53.336;-6.298;2022-11-20T02:44:11;99943.69;;;23.57;41.89
42621;BME280;28252;53.336;-6.298;2022-11-20T02:44:42;99944.50;;;23.58;42.07
42621;BME280;28252;53.336;-6.298;2022-11-20T02:45:13;99947.22;;;23.58;42.08
42621;BME280;28252;53.336;-6.298;2022-11-20T02:45:44;99949.13;;;23.57;42.05
42621;BME280;28252;53.336;-6.298;2022-11-20T02:46:15;99957.88;;;23.59;42.18
42621;BME280;28252;53.336;-6.298;2022-11-20T02:46:46;99954.56;;;23.57;41.83
42621;BME280;28252;53.336;-6.298;2022-11-20T02:47:16;99953.50;;;23.58;42.20
42621;BME280;28252;53.336;-6.298;2022-11-20T02:47:48;99955.38;;;23.58;41.88
42621;BME280;28252;53.336;-6.298;2022-11-20T02:48:19;99951.22;;;23.55;41.75
42621;BME280;28252;53.336;-6.298;2022-11-20T02:48:49;99955.59;;;23.56;42.09
42621;BME280;28252;53.336;-6.298;2022-11-20T02:49:20;99952.88;;;23.56;41.86
42621;BME280;28252;53.336;-6.298;2022-11-20T02:49:51;99963.94;;;23.55;41.87
42621;BME280;28252;53.336;-6.298;2022-11-20T02:50:22;99953.31;;;23.53;42.14
42621;BME280;28252;53.336;-6.298;2022-11-20T02:50:53;99950.59;;;23.53;42.17
42621;BME280;28252;53.336;-6.298;2022-11-20T02:51:24;99953.53;;;23.52;42.17
42621;BME280;28252;53.336;-6.298;2022-11-20T02:51:55;99957.88;;;23.53;42.01
42621;BME280;28252;53.336;-6.298;2022-11-20T02:52:26;99949.94;;;23.51;41.94